sensor_id;sensor_type;location;lat;lon;timestamp;P1;durP1;ratioP1;P2;durP2;ratioP2
30543;SDS011;43388;46.308;4.600;2023-02-28T00:00:47;9.35;;;8.45;;
30543;SDS011;43388;46.308;4.600;2023-02-28T00:03:13;9.07;;;8.27;;
30543;SDS011;43388;46.308;4.600;2023-02-28T00:05:40;9.57;;;8.63;;
30543;SDS011;43388;46.308;4.600;2023-02-28T00:08:06;9.32;;;8.35;;
30543;SDS011;43388;46.308;4.600;2023-02-28T00:10:33;9.07;;;8.25;;
30543;SDS011;43388;46.308;4.600;2023-02-28T00:13:00;8.32;;;7.53;;
30543;SDS011;43388;46.308;4.600;2023-02-28T00:15:27;10.00;;;8.18;;
30543;SDS011;43388;46.308;4.600;2023-02-28T00:17:53;9.90;;;9.07;;
30543;SDS011;43388;46.308;4.600;2023-02-28T00:20:20;9.68;;;8.77;;
30543;SDS011;43388;46.308;4.600;2023-02-28T00:22:50;9.30;;;8.50;;
30543;SDS011;43388;46.308;4.600;2023-02-28T00:25:18;9.60;;;8.70;;
30543;SDS011;43388;46.308;4.600;2023-02-28T00:27:44;9.00;;;8.07;;
30543;SDS011;43388;46.308;4.600;2023-02-28T00:32:43;10.45;;;8.88;;
30543;SDS011;43388;46.308;4.600;2023-02-28T00:35:09;9.38;;;8.50;;
30543;SDS011;43388;46.308;4.600;2023-02-28T00:37:35;9.35;;;8.55;;
30543;SDS011;43388;46.308;4.600;2023-02-28T00:40:02;9.00;;;8.20;;
30543;SDS011;43388;46.308;4.600;2023-02-28T00:42:32;9.30;;;8.30;;
30543;SDS011;43388;46.308;4.600;2023-02-28T00:44:58;9.52;;;8.60;;
30543;SDS011;43388;46.308;4.600;2023-02-28T00:47:25;9.68;;;8.25;;
30543;SDS011;43388;46.308;4.600;2023-02-28T00:49:51;9.45;;;8.55;;
30543;SDS011;43388;46.308;4.600;2023-02-28T00:52:17;10.02;;;9.00;;
30543;SDS011;43388;46.308;4.600;2023-02-28T00:54:43;10.45;;;9.10;;
30543;SDS011;43388;46.308;4.600;2023-02-28T00:57:09;9.35;;;8.45;;
30543;SDS011;43388;46.308;4.600;2023-02-28T00:59:35;8.63;;;7.82;;
30543;SDS011;43388;46.308;4.600;2023-02-28T01:02:01;9.30;;;8.50;;
30543;SDS011;43388;46.308;4.600;2023-02-28T01:04:27;9.10;;;8.20;;
30543;SDS011;43388;46.308;4.600;2023-02-28T01:06:53;9.90;;;8.82;;
30543;SDS011;43388;46.308;4.600;2023-02-28T01:09:19;9.23;;;8.32;;
30543;SDS011;43388;46.308;4.600;2023-02-28T01:11:45;9.18;;;8.18;;
30543;SDS011;43388;46.308;4.600;2023-02-28T01:14:12;9.75;;;8.68;;
30543;SDS011;43388;46.308;4.600;2023-02-28T01:16:38;10.63;;;8.57;;
30543;SDS011;43388;46.308;4.600;2023-02-28T01:19:04;9.02;;;7.70;;
30543;SDS011;43388;46.308;4.600;2023-02-28T01:21:31;9.48;;;8.50;;
30543;SDS011;43388;46.308;4.600;2023-02-28T01:23:57;11.13;;;8.32;;
30543;SDS011;43388;46.308;4.600;2023-02-28T01:26:23;9.70;;;8.70;;
30543;SDS011;43388;46.308;4.600;2023-02-28T01:28:50;8.98;;;8.00;;
30543;SDS011;43388;46.308;4.600;2023-02-28T01:31:17;9.20;;;8.30;;
30543;SDS011;43388;46.308;4.600;2023-02-28T01:33:43;8.75;;;7.85;;
30543;SDS011;43388;46.308;4.600;2023-02-28T01:36:14;8.98;;;8.07;;
30543;SDS011;43388;46.308;4.600;2023-02-28T01:38:40;8.50;;;7.75;;
30543;SDS011;43388;46.308;4.600;2023-02-28T01:41:07;7.97;;;7.28;;
30543;SDS011;43388;46.308;4.600;2023-02-28T01:46:08;9.15;;;8.25;;
30543;SDS011;43388;46.308;4.600;2023-02-28T01:48:35;9.23;;;7.90;;
30543;SDS011;43388;46.308;4.600;2023-02-28T01:51:06;9.20;;;8.27;;
30543;SDS011;43388;46.308;4.600;2023-02-28T01:53:55;8.95;;;8.13;;
30543;SDS011;43388;46.308;4.600;2023-02-28T01:56:21;8.85;;;7.95;;
30543;SDS011;43388;46.308;4.600;2023-02-28T01:58:49;10.32;;;8.05;;
30543;SDS011;43388;46.308;4.600;2023-02-28T02:01:16;9.05;;;8.15;;
30543;SDS011;43388;46.308;4.600;2023-02-28T02:03:59;10.38;;;8.95;;
30543;SDS011;43388;46.308;4.600;2023-02-28T02:06:28;8.30;;;7.57;;
30543;SDS011;43388;46.308;4.600;2023-02-28T02:08:55;8.95;;;7.88;;
30543;SDS011;43388;46.308;4.600;2023-02-28T02:11:21;8.60;;;7.85;;
30543;SDS011;43388;46.308;4.600;2023-02-28T02:14:05;8.80;;;7.90;;
30543;SDS011;43388;46.308;4.600;2023-02-28T02:21:57;9.00;;;8.23;;
30543;SDS011;43388;46.308;4.600;2023-02-28T02:35:05;8.27;;;7.47;;
30543;SDS011;43388;46.308;4.600;2023-02-28T02:37:43;12.63;;;7.65;;
30543;SDS011;43388;46.308;4.600;2023-02-28T02:40:14;8.82;;;7.93;;
30543;SDS011;43388;46.308;4.600;2023-02-28T02:42:44;8.93;;;8.02;;
30543;SDS011;43388;46.308;4.600;2023-02-28T02:45:12;9.23;;;7.30;;
30543;SDS011;43388;46.308;4.600;2023-02-28T02:47:41;8.85;;;8.05;;
30543;SDS011;43388;46.308;4.600;2023-02-28T02:50:11;7.43;;;6.72;;
30543;SDS011;43388;46.308;4.600;2023-02-28T02:52:41;8.32;;;7.50;;
30543;SDS011;43388;46.308;4.600;2023-02-28T02:55:08;8.20;;;7.15;;
30543;SDS011;43388;46.308;4.600;2023-02-28T02:57:38;10.27;;;8.27;;
30543;SDS011;43388;46.308;4.600;2023-02-28T03:00:06;9.98;;;7.82;;
30543;SDS011;43388;46.308;4.600;2023-02-28T03:02:34;8.00;;;7.20;;
30543;SDS011;43388;46.308;4.600;2023-02-28T03:05:03;8.85;;;7.78;;
30543;SDS011;43388;46.308;4.600;2023-02-28T03:07:30;7.80;;;7.03;;
30543;SDS011;43388;46.308;4.600;2023-02-28T03:09:56;9.73;;;8.02;;
30543;SDS011;43388;46.308;4.600;2023-02-28T03:12:29;10.77;;;9.35;;
30543;SDS011;43388;46.308;4.600;2023-02-28T03:25:29;8.50;;;7.68;;
30543;SDS011;43388;46.308;4.600;2023-02-28T03:28:02;12.48;;;10.27;;
30543;SDS011;43388;46.308;4.600;2023-02-28T03:32:57;9.18;;;8.30;;
30543;SDS011;43388;46.308;4.600;2023-02-28T03:35:26;9.05;;;8.20;;
30543;SDS011;43388;46.308;4.600;2023-02-28T03:37:53;8.60;;;7.63;;
30543;SDS011;43388;46.308;4.600;2023-02-28T03:40:23;8.43;;;7.63;;
30543;SDS011;43388;46.308;4.600;2023-02-28T03:42:52;8.60;;;7.90;;
30543;SDS011;43388;46.308;4.600;2023-02-28T03:45:21;7.43;;;6.80;;
30543;SDS011;43388;46.308;4.600;2023-02-28T03:47:55;7.70;;;6.85;;
30543;SDS011;43388;46.308;4.600;2023-02-28T03:50:24;8.00;;;7.20;;
30543;SDS011;43388;46.308;4.600;2023-02-28T03:55:26;8.85;;;7.95;;
30543;SDS011;43388;46.308;4.600;2023-02-28T04:00:25;9.05;;;7.03;;
30543;SDS011;43388;46.308;4.600;2023-02-28T04:02:53;7.30;;;6.68;;
30543;SDS011;43388;46.308;4.600;2023-02-28T04:05:19;8.43;;;6.47;;
30543;SDS011;43388;46.308;4.600;2023-02-28T04:07:46;9.93;;;7.05;;
30543;SDS011;43388;46.308;4.600;2023-02-28T04:10:13;9.40;;;7.38;;
30543;SDS011;43388;46.308;4.600;2023-02-28T04:12:39;8.88;;;7.15;;
30543;SDS011;43388;46.308;4.600;2023-02-28T04:15:05;7.45;;;6.75;;
30543;SDS011;43388;46.308;4.600;2023-02-28T04:17:31;7.88;;;7.05;;
30543;SDS011;43388;46.308;4.600;2023-02-28T04:19:57;9.55;;;7.50;;
30543;SDS011;43388;46.308;4.600;2023-02-28T04:22:23;8.07;;;7.05;;
30543;SDS011;43388;46.308;4.600;2023-02-28T04:24:52;8.15;;;7.43;;
30543;SDS011;43388;46.308;4.600;2023-02-28T04:27:21;7.72;;;6.88;;
30543;SDS011;43388;46.308;4.600;2023-02-28T04:29:47;8.15;;;7.38;;
30543;SDS011;43388;46.308;4.600;2023-02-28T04:32:13;7.30;;;6.70;;
30543;SDS011;43388;46.308;4.600;2023-02-28T04:34:39;7.13;;;6.43;;
30543;SDS011;43388;46.308;4.600;2023-02-28T04:37:05;6.60;;;6.10;;
30543;SDS011;43388;46.308;4.600;2023-02-28T04:39:34;6.65;;;6.03;;
30543;SDS011;43388;46.308;4.600;2023-02-28T04:42:00;8.05;;;7.25;;
30543;SDS011;43388;46.308;4.600;2023-02-28T04:44:26;11.30;;;10.15;;
30543;SDS011;43388;46.308;4.600;2023-02-28T04:46:52;8.00;;;7.25;;
30543;SDS011;43388;46.308;4.600;2023-02-28T04:49:18;7.97;;;7.28;;
30543;SDS011;43388;46.308;4.600;2023-02-28T04:51:44;8.00;;;7.30;;
30543;SDS011;43388;46.308;4.600;2023-02-28T04:54:10;7.90;;;7.15;;
30543;SDS011;43388;46.308;4.600;2023-02-28T04:56:36;6.95;;;6.38;;
30543;SDS011;43388;46.308;4.600;2023-02-28T04:59:02;7.72;;;6.93;;
30543;SDS011;43388;46.308;4.600;2023-02-28T05:01:29;7.40;;;6.35;;
30543;SDS011;43388;46.308;4.600;2023-02-28T05:03:57;7.45;;;6.78;;
30543;SDS011;43388;46.308;4.600;2023-02-28T05:06:24;7.78;;;7.07;;
30543;SDS011;43388;46.308;4.600;2023-02-28T05:08:50;7.35;;;6.63;;
30543;SDS011;43388;46.308;4.600;2023-02-28T05:11:21;7.85;;;6.57;;
30543;SDS011;43388;46.308;4.600;2023-02-28T05:13:48;7.18;;;6.53;;
30543;SDS011;43388;46.308;4.600;2023-02-28T05:16:15;6.80;;;6.18;;
30543;SDS011;43388;46.308;4.600;2023-02-28T05:18:41;7.28;;;6.68;;
30543;SDS011;43388;46.308;4.600;2023-02-28T05:21:17;8.20;;;7.40;;
30543;SDS011;43388;46.308;4.600;2023-02-28T05:23:49;7.85;;;7.15;;
30543;SDS011;43388;46.308;4.600;2023-02-28T05:26:15;8.65;;;7.75;;
30543;SDS011;43388;46.308;4.600;2023-02-28T05:28:41;7.55;;;6.85;;
30543;SDS011;43388;46.308;4.600;2023-02-28T05:31:08;10.38;;;7.78;;
30543;SDS011;43388;46.308;4.600;2023-02-28T05:33:34;8.18;;;7.15;;
30543;SDS011;43388;46.308;4.600;2023-02-28T05:36:00;8.13;;;7.35;;
30543;SDS011;43388;46.308;4.600;2023-02-28T05:38:26;8.43;;;6.60;;
30543;SDS011;43388;46.308;4.600;2023-02-28T05:40:52;7.38;;;6.68;;
30543;SDS011;43388;46.308;4.600;2023-02-28T05:43:18;7.80;;;7.00;;
30543;SDS011;43388;46.308;4.600;2023-02-28T05:45:44;7.80;;;7.10;;
30543;SDS011;43388;46.308;4.600;2023-02-28T05:48:10;8.18;;;7.20;;
30543;SDS011;43388;46.308;4.600;2023-02-28T05:50:36;8.65;;;7.05;;
30543;SDS011;43388;46.308;4.600;2023-02-28T05:53:02;7.30;;;6.70;;
30543;SDS011;43388;46.308;4.600;2023-02-28T05:55:28;8.82;;;7.07;;
30543;SDS011;43388;46.308;4.600;2023-02-28T05:57:54;8.40;;;7.60;;
30543;SDS011;43388;46.308;4.600;2023-02-28T06:00:21;7.75;;;7.00;;
30543;SDS011;43388;46.308;4.600;2023-02-28T06:02:47;8.38;;;7.57;;
30543;SDS011;43388;46.308;4.600;2023-02-28T06:05:14;7.03;;;6.43;;
30543;SDS011;43388;46.308;4.600;2023-02-28T06:07:40;8.80;;;7.90;;
30543;SDS011;43388;46.308;4.600;2023-02-28T06:10:06;8.65;;;7.80;;
30543;SDS011;43388;46.308;4.600;2023-02-28T06:12:32;8.38;;;7.78;;
30543;SDS011;43388;46.308;4.600;2023-02-28T06:14:58;8.68;;;7.50;;
30543;SDS011;43388;46.308;4.600;2023-02-28T06:17:24;8.80;;;8.07;;
30543;SDS011;43388;46.308;4.600;2023-02-28T06:19:50;9.10;;;8.30;;
30543;SDS011;43388;46.308;4.600;2023-02-28T06:22:16;8.40;;;7.60;;
30543;SDS011;43388;46.308;4.600;2023-02-28T06:24:42;7.68;;;7.07;;
30543;SDS011;43388;46.308;4.600;2023-02-28T06:27:08;7.82;;;7.05;;
30543;SDS011;43388;46.308;4.600;2023-02-28T06:29:35;8.00;;;7.20;;
30543;SDS011;43388;46.308;4.600;2023-02-28T06:32:01;8.85;;;7.75;;
30543;SDS011;43388;46.308;4.600;2023-02-28T06:34:27;9.20;;;8.38;;
30543;SDS011;43388;46.308;4.600;2023-02-28T06:36:53;9.43;;;8.30;;
30543;SDS011;43388;46.308;4.600;2023-02-28T06:39:19;8.20;;;7.50;;
30543;SDS011;43388;46.308;4.600;2023-02-28T06:41:45;10.10;;;8.82;;
30543;SDS011;43388;46.308;4.600;2023-02-28T06:44:13;11.95;;;9.50;;
30543;SDS011;43388;46.308;4.600;2023-02-28T06:46:40;9.65;;;8.60;;
30543;SDS011;43388;46.308;4.600;2023-02-28T06:49:06;9.82;;;7.78;;
30543;SDS011;43388;46.308;4.600;2023-02-28T06:51:36;10.35;;;8.30;;
30543;SDS011;43388;46.308;4.600;2023-02-28T06:54:03;8.05;;;7.35;;
30543;SDS011;43388;46.308;4.600;2023-02-28T06:56:29;8.73;;;7.90;;
30543;SDS011;43388;46.308;4.600;2023-02-28T06:58:55;8.40;;;7.70;;
30543;SDS011;43388;46.308;4.600;2023-02-28T07:01:21;9.85;;;8.80;;
30543;SDS011;43388;46.308;4.600;2023-02-28T07:03:48;10.68;;;9.70;;
30543;SDS011;43388;46.308;4.600;2023-02-28T07:06:18;10.38;;;9.40;;
30543;SDS011;43388;46.308;4.600;2023-02-28T07:08:44;12.48;;;9.55;;
30543;SDS011;43388;46.308;4.600;2023-02-28T07:11:11;10.30;;;9.25;;
30543;SDS011;43388;46.308;4.600;2023-02-28T07:13:37;38.00;;;32.28;;
30543;SDS011;43388;46.308;4.600;2023-02-28T07:16:03;30.15;;;23.23;;
30543;SDS011;43388;46.308;4.600;2023-02-28T07:18:30;17.90;;;15.98;;
30543;SDS011;43388;46.308;4.600;2023-02-28T07:20:56;14.93;;;13.30;;
30543;SDS011;43388;46.308;4.600;2023-02-28T07:23:22;19.92;;;17.42;;
30543;SDS011;43388;46.308;4.600;2023-02-28T07:25:49;33.92;;;27.75;;
30543;SDS011;43388;46.308;4.600;2023-02-28T07:28:15;28.80;;;23.27;;
30543;SDS011;43388;46.308;4.600;2023-02-28T07:30:41;40.08;;;35.78;;
30543;SDS011;43388;46.308;4.600;2023-02-28T07:33:08;26.63;;;23.92;;
30543;SDS011;43388;46.308;4.600;2023-02-28T07:35:34;22.17;;;20.08;;
30543;SDS011;43388;46.308;4.600;2023-02-28T07:38:00;19.42;;;15.70;;
30543;SDS011;43388;46.308;4.600;2023-02-28T07:40:26;19.40;;;17.58;;
30543;SDS011;43388;46.308;4.600;2023-02-28T07:42:52;19.27;;;17.48;;
30543;SDS011;43388;46.308;4.600;2023-02-28T07:45:18;16.35;;;14.18;;
30543;SDS011;43388;46.308;4.600;2023-02-28T07:47:44;14.32;;;13.00;;
30543;SDS011;43388;46.308;4.600;2023-02-28T07:50:12;11.60;;;10.52;;
30543;SDS011;43388;46.308;4.600;2023-02-28T07:52:38;9.10;;;8.30;;
30543;SDS011;43388;46.308;4.600;2023-02-28T07:55:05;9.82;;;8.93;;
30543;SDS011;43388;46.308;4.600;2023-02-28T07:57:31;10.43;;;9.50;;
30543;SDS011;43388;46.308;4.600;2023-02-28T07:59:57;27.50;;;24.92;;
30543;SDS011;43388;46.308;4.600;2023-02-28T08:02:23;19.80;;;18.00;;
30543;SDS011;43388;46.308;4.600;2023-02-28T08:04:49;20.98;;;19.10;;
30543;SDS011;43388;46.308;4.600;2023-02-28T08:07:16;12.60;;;11.50;;
30543;SDS011;43388;46.308;4.600;2023-02-28T08:09:42;14.52;;;13.23;;
30543;SDS011;43388;46.308;4.600;2023-02-28T08:12:09;14.73;;;13.23;;
30543;SDS011;43388;46.308;4.600;2023-02-28T08:14:35;12.13;;;11.13;;
30543;SDS011;43388;46.308;4.600;2023-02-28T08:17:01;10.10;;;9.07;;
30543;SDS011;43388;46.308;4.600;2023-02-28T08:19:28;11.52;;;9.48;;
30543;SDS011;43388;46.308;4.600;2023-02-28T08:21:54;10.48;;;9.48;;
30543;SDS011;43388;46.308;4.600;2023-02-28T08:24:20;12.10;;;10.75;;
30543;SDS011;43388;46.308;4.600;2023-02-28T08:26:46;8.63;;;7.93;;
30543;SDS011;43388;46.308;4.600;2023-02-28T08:29:12;9.23;;;8.43;;
30543;SDS011;43388;46.308;4.600;2023-02-28T08:31:38;8.35;;;7.72;;
30543;SDS011;43388;46.308;4.600;2023-02-28T08:34:08;11.75;;;9.43;;
30543;SDS011;43388;46.308;4.600;2023-02-28T08:36:35;11.18;;;9.90;;
30543;SDS011;43388;46.308;4.600;2023-02-28T08:39:02;12.15;;;10.93;;
30543;SDS011;43388;46.308;4.600;2023-02-28T08:41:28;11.25;;;8.05;;
30543;SDS011;43388;46.308;4.600;2023-02-28T08:43:54;11.02;;;8.45;;
30543;SDS011;43388;46.308;4.600;2023-02-28T08:46:20;10.25;;;9.23;;
30543;SDS011;43388;46.308;4.600;2023-02-28T08:48:46;14.10;;;9.00;;
30543;SDS011;43388;46.308;4.600;2023-02-28T08:51:14;10.52;;;9.70;;
30543;SDS011;43388;46.308;4.600;2023-02-28T08:53:46;11.18;;;9.23;;
30543;SDS011;43388;46.308;4.600;2023-02-28T08:56:16;11.68;;;10.68;;
30543;SDS011;43388;46.308;4.600;2023-02-28T08:58:43;11.52;;;10.52;;
30543;SDS011;43388;46.308;4.600;2023-02-28T09:01:16;11.07;;;10.02;;
30543;SDS011;43388;46.308;4.600;2023-02-28T09:03:43;14.75;;;12.32;;
30543;SDS011;43388;46.308;4.600;2023-02-28T09:06:09;11.60;;;10.38;;
30543;SDS011;43388;46.308;4.600;2023-02-28T09:08:36;15.50;;;13.95;;
30543;SDS011;43388;46.308;4.600;2023-02-28T09:11:02;13.02;;;9.35;;
30543;SDS011;43388;46.308;4.600;2023-02-28T09:13:28;10.70;;;9.75;;
30543;SDS011;43388;46.308;4.600;2023-02-28T09:15:57;10.07;;;9.20;;
30543;SDS011;43388;46.308;4.600;2023-02-28T09:18:23;9.43;;;8.05;;
30543;SDS011;43388;46.308;4.600;2023-02-28T09:20:49;10.27;;;9.27;;
30543;SDS011;43388;46.308;4.600;2023-02-28T09:23:15;11.27;;;10.00;;
30543;SDS011;43388;46.308;4.600;2023-02-28T09:25:45;11.35;;;10.45;;
30543;SDS011;43388;46.308;4.600;2023-02-28T09:28:12;18.77;;;16.98;;
30543;SDS011;43388;46.308;4.600;2023-02-28T09:30:40;10.05;;;9.05;;
30543;SDS011;43388;46.308;4.600;2023-02-28T09:33:06;18.48;;;16.63;;
30543;SDS011;43388;46.308;4.600;2023-02-28T09:35:32;15.38;;;13.40;;
30543;SDS011;43388;46.308;4.600;2023-02-28T09:37:58;13.75;;;12.55;;
30543;SDS011;43388;46.308;4.600;2023-02-28T09:40:27;12.80;;;11.60;;
30543;SDS011;43388;46.308;4.600;2023-02-28T09:42:54;11.57;;;10.38;;
30543;SDS011;43388;46.308;4.600;2023-02-28T09:47:48;13.57;;;12.40;;
30543;SDS011;43388;46.308;4.600;2023-02-28T09:50:28;11.93;;;10.82;;
30543;SDS011;43388;46.308;4.600;2023-02-28T09:52:57;11.75;;;10.75;;
30543;SDS011;43388;46.308;4.600;2023-02-28T09:55:31;16.25;;;11.70;;
30543;SDS011;43388;46.308;4.600;2023-02-28T09:57:59;13.43;;;12.13;;
30543;SDS011;43388;46.308;4.600;2023-02-28T10:05:43;12.60;;;10.80;;
30543;SDS011;43388;46.308;4.600;2023-02-28T10:10:47;11.25;;;10.05;;
30543;SDS011;43388;46.308;4.600;2023-02-28T10:15:43;10.68;;;9.65;;
30543;SDS011;43388;46.308;4.600;2023-02-28T10:18:11;12.48;;;9.25;;
30543;SDS011;43388;46.308;4.600;2023-02-28T10:20:39;10.15;;;9.13;;
30543;SDS011;43388;46.308;4.600;2023-02-28T10:25:38;11.82;;;8.82;;
30543;SDS011;43388;46.308;4.600;2023-02-28T10:28:14;10.75;;;9.45;;
30543;SDS011;43388;46.308;4.600;2023-02-28T10:30:45;14.73;;;13.20;;
30543;SDS011;43388;46.308;4.600;2023-02-28T10:35:44;10.82;;;9.82;;
30543;SDS011;43388;46.308;4.600;2023-02-28T10:38:22;10.85;;;9.70;;
30543;SDS011;43388;46.308;4.600;2023-02-28T10:40:48;13.45;;;9.45;;
30543;SDS011;43388;46.308;4.600;2023-02-28T10:50:50;10.63;;;9.65;;
30543;SDS011;43388;46.308;4.600;2023-02-28T10:55:59;10.55;;;9.65;;
30543;SDS011;43388;46.308;4.600;2023-02-28T10:59:22;13.68;;;10.02;;
30543;SDS011;43388;46.308;4.600;2023-02-28T11:01:16;10.68;;;9.57;;
30543;SDS011;43388;46.308;4.600;2023-02-28T11:03:43;9.80;;;8.90;;
30543;SDS011;43388;46.308;4.600;2023-02-28T11:06:16;9.82;;;8.85;;
30543;SDS011;43388;46.308;4.600;2023-02-28T11:08:47;9.77;;;8.77;;
30543;SDS011;43388;46.308;4.600;2023-02-28T11:11:14;9.70;;;8.80;;
30543;SDS011;43388;46.308;4.600;2023-02-28T11:13:42;14.00;;;9.00;;
30543;SDS011;43388;46.308;4.600;2023-02-28T11:16:10;9.82;;;9.02;;
30543;SDS011;43388;46.308;4.600;2023-02-28T11:18:49;11.45;;;8.45;;
30543;SDS011;43388;46.308;4.600;2023-02-28T11:21:17;10.63;;;9.52;;
30543;SDS011;43388;46.308;4.600;2023-02-28T11:23:44;11.60;;;9.98;;
30543;SDS011;43388;46.308;4.600;2023-02-28T11:26:10;9.98;;;9.02;;
30543;SDS011;43388;46.308;4.600;2023-02-28T11:28:38;9.88;;;9.07;;
30543;SDS011;43388;46.308;4.600;2023-02-28T11:31:06;10.38;;;9.27;;
30543;SDS011;43388;46.308;4.600;2023-02-28T11:36:11;12.27;;;9.82;;
30543;SDS011;43388;46.308;4.600;2023-02-28T11:38:37;10.40;;;9.50;;
30543;SDS011;43388;46.308;4.600;2023-02-28T11:48:53;11.45;;;10.18;;
30543;SDS011;43388;46.308;4.600;2023-02-28T11:51:33;11.27;;;9.60;;
30543;SDS011;43388;46.308;4.600;2023-02-28T12:11:55;11.35;;;10.30;;
30543;SDS011;43388;46.308;4.600;2023-02-28T12:19:54;11.80;;;10.80;;
30543;SDS011;43388;46.308;4.600;2023-02-28T12:25:24;12.30;;;11.18;;
30543;SDS011;43388;46.308;4.600;2023-02-28T12:27:54;11.20;;;10.10;;
30543;SDS011;43388;46.308;4.600;2023-02-28T12:30:33;21.90;;;19.73;;
30543;SDS011;43388;46.308;4.600;2023-02-28T12:33:03;12.05;;;10.88;;
30543;SDS011;43388;46.308;4.600;2023-02-28T12:35:49;11.90;;;10.70;;
30543;SDS011;43388;46.308;4.600;2023-02-28T12:43:11;12.45;;;11.35;;
30543;SDS011;43388;46.308;4.600;2023-02-28T12:48:05;12.35;;;11.15;;
30543;SDS011;43388;46.308;4.600;2023-02-28T12:50:32;12.77;;;11.55;;
30543;SDS011;43388;46.308;4.600;2023-02-28T12:53:09;13.45;;;12.07;;
30543;SDS011;43388;46.308;4.600;2023-02-28T12:55:43;13.23;;;12.05;;
30543;SDS011;43388;46.308;4.600;2023-02-28T13:06:05;12.75;;;11.00;;
30543;SDS011;43388;46.308;4.600;2023-02-28T13:11:24;12.15;;;11.13;;
30543;SDS011;43388;46.308;4.600;2023-02-28T13:13:56;13.27;;;11.98;;
30543;SDS011;43388;46.308;4.600;2023-02-28T13:16:22;13.10;;;11.80;;
30543;SDS011;43388;46.308;4.600;2023-02-28T13:18:48;14.27;;;12.63;;
30543;SDS011;43388;46.308;4.600;2023-02-28T13:21:28;14.25;;;12.85;;
30543;SDS011;43388;46.308;4.600;2023-02-28T13:23:58;14.27;;;12.98;;
30543;SDS011;43388;46.308;4.600;2023-02-28T13:32:18;13.07;;;11.77;;
30543;SDS011;43388;46.308;4.600;2023-02-28T13:34:20;13.82;;;12.38;;
30543;SDS011;43388;46.308;4.600;2023-02-28T13:36:46;13.45;;;12.05;;
30543;SDS011;43388;46.308;4.600;2023-02-28T13:41:57;12.97;;;11.70;;
30543;SDS011;43388;46.308;4.600;2023-02-28T13:45:29;16.88;;;15.30;;
30543;SDS011;43388;46.308;4.600;2023-02-28T13:53:41;15.05;;;13.45;;
30543;SDS011;43388;46.308;4.600;2023-02-28T14:05:44;14.38;;;12.73;;
30543;SDS011;43388;46.308;4.600;2023-02-28T14:08:15;14.73;;;12.73;;
30543;SDS011;43388;46.308;4.600;2023-02-28T14:10:46;15.88;;;14.27;;
30543;SDS011;43388;46.308;4.600;2023-02-28T14:16:00;13.93;;;12.63;;
30543;SDS011;43388;46.308;4.600;2023-02-28T14:18:27;14.20;;;12.85;;
30543;SDS011;43388;46.308;4.600;2023-02-28T14:21:01;17.15;;;14.65;;
30543;SDS011;43388;46.308;4.600;2023-02-28T14:23:36;14.73;;;12.60;;
30543;SDS011;43388;46.308;4.600;2023-02-28T14:31:07;14.23;;;12.55;;
30543;SDS011;43388;46.308;4.600;2023-02-28T14:36:17;14.18;;;12.52;;
30543;SDS011;43388;46.308;4.600;2023-02-28T14:38:48;13.38;;;12.23;;
30543;SDS011;43388;46.308;4.600;2023-02-28T14:41:39;12.38;;;11.18;;
30543;SDS011;43388;46.308;4.600;2023-02-28T14:44:17;14.30;;;12.88;;
30543;SDS011;43388;46.308;4.600;2023-02-28T14:46:45;14.00;;;12.40;;
30543;SDS011;43388;46.308;4.600;2023-02-28T14:49:27;14.27;;;12.82;;
30543;SDS011;43388;46.308;4.600;2023-02-28T14:54:35;16.42;;;12.32;;
30543;SDS011;43388;46.308;4.600;2023-02-28T14:57:02;14.25;;;12.43;;
30543;SDS011;43388;46.308;4.600;2023-02-28T15:04:39;15.32;;;13.80;;
30543;SDS011;43388;46.308;4.600;2023-02-28T15:07:07;13.68;;;12.40;;
30543;SDS011;43388;46.308;4.600;2023-02-28T15:09:33;13.20;;;11.88;;
30543;SDS011;43388;46.308;4.600;2023-02-28T15:11:59;13.65;;;12.38;;
30543;SDS011;43388;46.308;4.600;2023-02-28T15:14:25;14.13;;;12.63;;
30543;SDS011;43388;46.308;4.600;2023-02-28T15:16:56;13.70;;;12.52;;
30543;SDS011;43388;46.308;4.600;2023-02-28T15:19:31;13.45;;;12.05;;
30543;SDS011;43388;46.308;4.600;2023-02-28T15:22:01;13.50;;;12.30;;
30543;SDS011;43388;46.308;4.600;2023-02-28T15:24:36;13.05;;;11.80;;
30543;SDS011;43388;46.308;4.600;2023-02-28T15:27:05;13.48;;;11.65;;
30543;SDS011;43388;46.308;4.600;2023-02-28T15:29:34;13.73;;;12.45;;
30543;SDS011;43388;46.308;4.600;2023-02-28T15:32:03;13.82;;;12.55;;
30543;SDS011;43388;46.308;4.600;2023-02-28T15:34:40;13.65;;;12.35;;
30543;SDS011;43388;46.308;4.600;2023-02-28T15:39:51;14.63;;;13.07;;
30543;SDS011;43388;46.308;4.600;2023-02-28T15:42:19;14.55;;;13.07;;
30543;SDS011;43388;46.308;4.600;2023-02-28T15:44:45;13.15;;;11.85;;
30543;SDS011;43388;46.308;4.600;2023-02-28T15:47:16;13.68;;;12.38;;
30543;SDS011;43388;46.308;4.600;2023-02-28T15:49:47;14.02;;;12.60;;
30543;SDS011;43388;46.308;4.600;2023-02-28T15:52:15;14.20;;;12.75;;
30543;SDS011;43388;46.308;4.600;2023-02-28T15:54:42;15.05;;;13.52;;
30543;SDS011;43388;46.308;4.600;2023-02-28T15:57:17;13.43;;;12.23;;
30543;SDS011;43388;46.308;4.600;2023-02-28T15:59:48;14.27;;;12.80;;
30543;SDS011;43388;46.308;4.600;2023-02-28T16:02:16;16.27;;;12.70;;
30543;SDS011;43388;46.308;4.600;2023-02-28T16:05:12;14.05;;;12.30;;
30543;SDS011;43388;46.308;4.600;2023-02-28T16:07:42;13.98;;;12.65;;
30543;SDS011;43388;46.308;4.600;2023-02-28T16:10:10;14.57;;;13.20;;
30543;SDS011;43388;46.308;4.600;2023-02-28T16:12:37;13.27;;;12.00;;
30543;SDS011;43388;46.308;4.600;2023-02-28T16:15:08;15.13;;;13.73;;
30543;SDS011;43388;46.308;4.600;2023-02-28T16:17:35;14.85;;;12.18;;
30543;SDS011;43388;46.308;4.600;2023-02-28T16:20:12;14.65;;;13.10;;
30543;SDS011;43388;46.308;4.600;2023-02-28T16:22:38;18.13;;;12.63;;
30543;SDS011;43388;46.308;4.600;2023-02-28T16:25:04;13.68;;;12.35;;
30543;SDS011;43388;46.308;4.600;2023-02-28T16:27:34;12.88;;;11.70;;
30543;SDS011;43388;46.308;4.600;2023-02-28T16:30:02;14.13;;;12.80;;
30543;SDS011;43388;46.308;4.600;2023-02-28T16:32:29;14.00;;;12.52;;
30543;SDS011;43388;46.308;4.600;2023-02-28T16:34:55;13.90;;;12.50;;
30543;SDS011;43388;46.308;4.600;2023-02-28T16:37:21;14.02;;;12.63;;
30543;SDS011;43388;46.308;4.600;2023-02-28T16:39:47;15.82;;;14.23;;
30543;SDS011;43388;46.308;4.600;2023-02-28T16:42:23;15.95;;;14.35;;
30543;SDS011;43388;46.308;4.600;2023-02-28T16:44:51;15.50;;;14.00;;
30543;SDS011;43388;46.308;4.600;2023-02-28T16:47:17;14.88;;;13.57;;
30543;SDS011;43388;46.308;4.600;2023-02-28T16:49:44;16.10;;;14.57;;
30543;SDS011;43388;46.308;4.600;2023-02-28T16:52:10;16.80;;;14.15;;
30543;SDS011;43388;46.308;4.600;2023-02-28T16:54:37;14.95;;;13.45;;
30543;SDS011;43388;46.308;4.600;2023-02-28T16:57:03;13.45;;;12.18;;
30543;SDS011;43388;46.308;4.600;2023-02-28T16:59:30;15.15;;;13.15;;
30543;SDS011;43388;46.308;4.600;2023-02-28T17:01:56;14.73;;;13.32;;
30543;SDS011;43388;46.308;4.600;2023-02-28T17:04:26;14.88;;;13.50;;
30543;SDS011;43388;46.308;4.600;2023-02-28T17:06:52;14.00;;;12.60;;
30543;SDS011;43388;46.308;4.600;2023-02-28T17:09:22;13.32;;;12.13;;
30543;SDS011;43388;46.308;4.600;2023-02-28T17:11:50;16.83;;;14.70;;
30543;SDS011;43388;46.308;4.600;2023-02-28T17:14:16;14.40;;;12.90;;
30543;SDS011;43388;46.308;4.600;2023-02-28T17:16:42;16.58;;;14.95;;
30543;SDS011;43388;46.308;4.600;2023-02-28T17:19:13;19.25;;;17.27;;
30543;SDS011;43388;46.308;4.600;2023-02-28T17:21:39;17.00;;;15.38;;
30543;SDS011;43388;46.308;4.600;2023-02-28T17:24:07;17.92;;;16.05;;
30543;SDS011;43388;46.308;4.600;2023-02-28T17:26:33;21.27;;;14.90;;
30543;SDS011;43388;46.308;4.600;2023-02-28T17:28:59;16.13;;;14.50;;